Terminal Aerodrome Forecast
Issued by NWS Blacksburg, VA

Home | Current Version | Previous Version | Text Only | Print | Product List | Glossary On
Versions: 1 2 3 4 5 6 7 8 9 10 11 12 13 14 15 16 17 18 19 20 21 22 23 24 25 26 27 28 29 30 31
000
FTUS41 KRNK 231412 AAA
TAFDAN
TAF AMD
KDAN 231412Z 2314/2412 07003KT 6SM -SHRA OVC004
     FM231530 07004KT 6SM -SHRA SCT005 OVC008
     FM231700 07005KT P6SM -SHRA BKN015
     FM231900 06005KT P6SM -SHRA SCT018 BKN022
     FM240300 06007KT P6SM VCSH BKN025 OVC045
     FM240600 06006KT 6SM BR OVC023=

USA.gov is the U.S. government's official web portal to all federal, state and local government web resources and services.